createdAt,value
2019-03-27T00:02:24.291Z,11.35
2019-03-27T00:04:52.815Z,9.50
2019-03-27T00:07:21.282Z,11.60
2019-03-27T00:09:49.795Z,10.50
2019-03-27T00:12:18.647Z,10.58
2019-03-27T00:14:47.291Z,13.10
2019-03-27T00:17:15.762Z,11.73
2019-03-27T00:19:44.080Z,13.28
2019-03-27T00:22:12.647Z,12.15
2019-03-27T00:24:41.805Z,10.23
2019-03-27T00:27:10.318Z,11.35
2019-03-27T00:29:38.983Z,11.40
2019-03-27T00:32:07.348Z,13.05
2019-03-27T00:34:35.997Z,11.45
2019-03-27T00:37:04.516Z,12.82
2019-03-27T00:39:33.006Z,13.93
2019-03-27T00:42:01.318Z,15.68
2019-03-27T00:44:29.596Z,16.05
2019-03-27T00:46:58.322Z,17.67
2019-03-27T00:49:27.068Z,18.45
2019-03-27T00:51:55.661Z,18.20
2019-03-27T00:54:24.227Z,20.48
2019-03-27T00:56:52.515Z,19.65
2019-03-27T00:59:20.814Z,20.40
2019-03-27T01:01:49.464Z,21.80
2019-03-27T01:04:17.923Z,22.65
2019-03-27T01:06:46.230Z,24.18
2019-03-27T01:09:14.723Z,23.18
2019-03-27T01:11:43.244Z,23.52
2019-03-27T01:14:11.637Z,23.55
2019-03-27T01:16:40.252Z,22.32
2019-03-27T01:19:08.934Z,23.32
2019-03-27T01:21:37.417Z,22.82
2019-03-27T01:24:06.021Z,21.45
2019-03-27T01:26:34.607Z,21.68
2019-03-27T01:29:03.065Z,21.48
2019-03-27T01:31:31.700Z,22.67
2019-03-27T01:34:00.103Z,22.60
2019-03-27T01:36:28.523Z,21.97
2019-03-27T01:38:57.066Z,22.30
2019-03-27T01:41:28.403Z,23.10
2019-03-27T01:43:56.720Z,22.00
2019-03-27T01:46:25.503Z,21.87
2019-03-27T01:48:54.080Z,21.90
2019-03-27T01:51:22.376Z,22.70
2019-03-27T01:53:50.670Z,22.85
2019-03-27T01:56:19.268Z,22.52
2019-03-27T01:58:47.685Z,22.32
2019-03-27T02:01:16.033Z,22.48
2019-03-27T02:03:44.374Z,21.55
2019-03-27T02:06:12.848Z,20.92
2019-03-27T02:08:41.420Z,21.05
2019-03-27T02:11:09.935Z,20.10
2019-03-27T02:13:38.396Z,21.35
2019-03-27T02:16:07.523Z,21.33
2019-03-27T02:18:38.496Z,20.82
2019-03-27T02:21:07.154Z,21.57
2019-03-27T02:23:35.548Z,22.15
2019-03-27T02:26:04.180Z,22.87
2019-03-27T02:28:32.817Z,23.67
2019-03-27T02:31:01.760Z,22.25
2019-03-27T02:33:30.475Z,20.77
2019-03-27T02:35:59.747Z,19.07
2019-03-27T02:38:28.194Z,20.57
2019-03-27T02:40:56.539Z,22.58
2019-03-27T02:43:24.917Z,23.87
2019-03-27T02:45:53.701Z,21.00
2019-03-27T02:48:22.577Z,19.57
2019-03-27T02:50:51.389Z,19.40
2019-03-27T02:53:19.817Z,20.95
2019-03-27T02:55:48.207Z,20.43
2019-03-27T02:58:18.537Z,21.42
2019-03-27T03:00:47.561Z,18.87
2019-03-27T03:03:16.143Z,19.37
2019-03-27T03:05:44.760Z,17.40
2019-03-27T03:08:13.456Z,18.15
2019-03-27T03:10:45.688Z,14.75
2019-03-27T03:13:12.102Z,16.55
2019-03-27T03:15:40.750Z,17.20
2019-03-27T03:18:09.519Z,17.20
2019-03-27T03:20:38.415Z,17.32
2019-03-27T03:23:06.908Z,16.97
2019-03-27T03:25:35.719Z,16.07
2019-03-27T03:28:04.197Z,16.40
2019-03-27T03:30:32.799Z,16.52
2019-03-27T03:33:01.321Z,16.62
2019-03-27T03:35:29.801Z,16.37
2019-03-27T03:37:58.526Z,16.77
2019-03-27T03:40:27.082Z,17.00
2019-03-27T03:42:55.647Z,16.42
2019-03-27T03:45:24.426Z,14.75
2019-03-27T03:47:52.851Z,15.25
2019-03-27T03:50:33.642Z,21.42
2019-03-27T03:53:02.149Z,20.08
2019-03-27T03:55:30.924Z,20.43
2019-03-27T03:57:59.437Z,17.75
2019-03-27T04:00:27.826Z,20.02
2019-03-27T04:02:56.424Z,20.70
2019-03-27T04:05:25.051Z,33.85
2019-03-27T04:07:53.699Z,45.17
2019-03-27T04:10:22.519Z,42.43
2019-03-27T04:12:51.213Z,29.92
2019-03-27T04:15:19.655Z,19.35
2019-03-27T04:17:48.059Z,24.80
2019-03-27T04:20:16.681Z,24.98
2019-03-27T04:22:45.616Z,26.68
2019-03-27T04:25:14.667Z,24.97
2019-03-27T04:27:43.140Z,26.40
2019-03-27T04:30:11.707Z,25.95
2019-03-27T04:32:40.757Z,25.02
2019-03-27T04:35:09.287Z,22.48
2019-03-27T04:37:37.861Z,22.73
2019-03-27T04:40:06.365Z,22.93
2019-03-27T04:42:34.764Z,24.32
2019-03-27T04:45:03.360Z,25.72
2019-03-27T04:47:32.746Z,26.27
2019-03-27T04:50:01.325Z,25.80
2019-03-27T04:52:29.656Z,23.15
2019-03-27T04:54:57.985Z,21.73
2019-03-27T04:57:29.879Z,21.05
2019-03-27T04:59:58.589Z,20.88
2019-03-27T05:02:26.934Z,19.05
2019-03-27T05:04:55.972Z,18.23
2019-03-27T05:07:25.519Z,17.62
2019-03-27T05:09:53.931Z,16.50
2019-03-27T05:12:22.404Z,15.35
2019-03-27T05:14:50.866Z,15.50
2019-03-27T05:17:19.365Z,15.68
2019-03-27T05:19:48.231Z,17.00
2019-03-27T05:22:25.956Z,16.57
2019-03-27T05:24:54.558Z,17.48
2019-03-27T05:27:22.907Z,17.02
2019-03-27T05:29:51.346Z,17.25
2019-03-27T05:32:19.881Z,17.67
2019-03-27T05:34:50.619Z,18.42
2019-03-27T05:37:18.914Z,21.75
2019-03-27T05:39:47.450Z,28.65
2019-03-27T05:42:15.809Z,72.78
2019-03-27T05:44:44.967Z,94.15
2019-03-27T05:47:14.509Z,65.10
2019-03-27T05:49:43.679Z,53.48
2019-03-27T05:52:24.999Z,31.95
2019-03-27T05:54:53.280Z,16.73
2019-03-27T05:57:21.522Z,63.05
2019-03-27T05:59:49.882Z,29.60
2019-03-27T06:02:18.236Z,20.62
2019-03-27T06:04:46.597Z,33.10
2019-03-27T06:07:14.944Z,74.62
2019-03-27T06:09:43.306Z,55.52
2019-03-27T06:12:11.635Z,49.65
2019-03-27T06:14:40.038Z,25.68
2019-03-27T06:17:08.344Z,11.60
2019-03-27T06:19:36.711Z,9.45
2019-03-27T06:22:05.132Z,9.35
2019-03-27T06:24:33.558Z,8.98
2019-03-27T06:27:01.930Z,8.85
2019-03-27T06:29:30.241Z,8.98
2019-03-27T06:32:00.244Z,7.78
2019-03-27T06:36:57.096Z,7.83
2019-03-27T06:39:25.438Z,7.15
2019-03-27T06:41:53.709Z,7.80
2019-03-27T06:44:22.053Z,7.62
2019-03-27T06:46:50.341Z,6.75
2019-03-27T06:49:18.761Z,7.92
2019-03-27T06:51:52.084Z,7.95
2019-03-27T06:54:20.471Z,7.85
2019-03-27T06:56:49.974Z,9.13
2019-03-27T06:59:19.836Z,11.97
2019-03-27T07:01:48.214Z,11.10
2019-03-27T07:04:17.419Z,10.03
2019-03-27T07:06:48.031Z,9.17
2019-03-27T07:09:16.561Z,10.05
2019-03-27T07:11:45.075Z,8.93
2019-03-27T07:14:13.552Z,8.53
2019-03-27T07:16:41.844Z,11.65
2019-03-27T07:19:12.608Z,10.13
2019-03-27T07:21:40.994Z,9.33
2019-03-27T07:24:09.541Z,9.35
2019-03-27T07:26:38.661Z,10.18
2019-03-27T07:29:07.125Z,7.40
2019-03-27T07:31:35.503Z,8.48
2019-03-27T07:34:03.945Z,9.58
2019-03-27T07:36:32.377Z,9.88
2019-03-27T07:39:10.445Z,9.93
2019-03-27T07:43:59.105Z,10.10
2019-03-27T07:46:29.155Z,9.08
2019-03-27T07:51:25.482Z,7.12
2019-03-27T07:53:54.266Z,7.53
2019-03-27T07:56:22.797Z,8.20
2019-03-27T07:58:51.247Z,8.03
2019-03-27T08:01:20.041Z,8.33
2019-03-27T08:03:48.690Z,8.80
2019-03-27T08:06:17.204Z,8.60
2019-03-27T08:08:47.300Z,8.53
2019-03-27T08:13:45.601Z,10.03
2019-03-27T08:18:41.553Z,10.85
2019-03-27T08:21:11.653Z,11.20
2019-03-27T08:26:07.711Z,10.88
2019-03-27T08:28:36.102Z,10.98
2019-03-27T08:31:04.505Z,11.05
2019-03-27T08:33:32.867Z,10.08
2019-03-27T08:36:01.425Z,10.70
2019-03-27T08:38:29.895Z,10.50
2019-03-27T08:40:58.185Z,10.68
2019-03-27T08:43:26.582Z,9.13
2019-03-27T08:45:55.038Z,8.68
2019-03-27T08:48:23.528Z,9.75
2019-03-27T08:50:52.193Z,9.20
2019-03-27T08:53:20.494Z,9.20
2019-03-27T08:55:50.561Z,8.95
2019-03-27T09:00:49.808Z,9.10
2019-03-27T09:03:18.310Z,9.95
2019-03-27T09:05:46.806Z,12.10
2019-03-27T09:08:15.262Z,11.68
2019-03-27T09:10:43.618Z,11.55
2019-03-27T09:13:12.055Z,11.80
2019-03-27T09:15:40.415Z,8.38
2019-03-27T09:18:08.856Z,7.03
2019-03-27T09:20:37.260Z,7.20
2019-03-27T09:23:07.794Z,7.15
2019-03-27T09:25:36.271Z,8.18
2019-03-27T09:28:04.910Z,7.78
2019-03-27T09:30:33.213Z,6.55
2019-03-27T09:33:01.625Z,4.97
2019-03-27T09:35:31.734Z,4.70
2019-03-27T09:40:31.515Z,3.87
2019-03-27T09:43:00.799Z,4.12
2019-03-27T09:45:31.157Z,3.33
2019-03-27T09:47:59.628Z,3.62
2019-03-27T09:50:27.988Z,3.15
2019-03-27T09:52:56.880Z,3.40
2019-03-27T09:55:25.212Z,3.50
2019-03-27T09:57:53.589Z,2.95
2019-03-27T10:00:47.905Z,2.83
2019-03-27T10:03:16.894Z,2.60
2019-03-27T10:05:45.492Z,2.90
2019-03-27T10:08:14.009Z,3.33
2019-03-27T10:10:42.424Z,3.30
2019-03-27T10:13:10.804Z,3.92
2019-03-27T10:15:39.153Z,4.30
2019-03-27T10:18:07.477Z,3.70
2019-03-27T10:20:35.919Z,3.10
2019-03-27T10:23:04.469Z,3.47
2019-03-27T10:25:33.067Z,4.17
2019-03-27T10:28:01.404Z,3.80
2019-03-27T10:30:30.005Z,3.35
2019-03-27T10:32:58.623Z,3.55
2019-03-27T10:35:26.992Z,3.42
2019-03-27T10:37:55.644Z,2.95
2019-03-27T10:40:24.112Z,3.45
2019-03-27T10:42:52.573Z,3.47
2019-03-27T10:45:21.020Z,3.52
2019-03-27T10:47:49.626Z,3.12
2019-03-27T10:50:18.316Z,3.05
2019-03-27T10:52:46.622Z,2.95
2019-03-27T10:55:14.956Z,3.22
2019-03-27T10:57:43.240Z,3.47
2019-03-27T11:00:12.581Z,3.22
2019-03-27T11:02:41.035Z,3.52
2019-03-27T11:05:09.421Z,3.25
2019-03-27T11:07:37.772Z,3.58
2019-03-27T11:10:07.866Z,3.90
2019-03-27T11:12:36.183Z,3.62
2019-03-27T11:15:06.587Z,4.40
2019-03-27T11:17:35.131Z,3.72
2019-03-27T11:20:04.036Z,3.98
2019-03-27T11:22:35.406Z,4.10
2019-03-27T11:25:04.975Z,4.42
2019-03-27T11:27:33.428Z,3.92
2019-03-27T11:30:02.767Z,4.45
2019-03-27T11:32:31.284Z,4.08
2019-03-27T11:34:59.607Z,3.77
2019-03-27T11:37:28.074Z,4.40
2019-03-27T11:39:56.534Z,4.08
2019-03-27T11:42:27.998Z,4.80
2019-03-27T11:44:56.764Z,4.80
2019-03-27T11:47:25.112Z,4.95
2019-03-27T11:49:53.452Z,5.15
2019-03-27T11:52:21.867Z,5.53
2019-03-27T11:54:50.258Z,4.47
2019-03-27T11:57:18.693Z,5.70
2019-03-27T11:59:53.716Z,5.92
2019-03-27T12:02:17.684Z,6.33
2019-03-27T12:04:46.189Z,5.15
2019-03-27T12:07:14.504Z,5.28
2019-03-27T12:09:43.029Z,4.47
2019-03-27T12:12:11.465Z,5.70
2019-03-27T12:14:39.761Z,4.03
2019-03-27T12:17:08.387Z,4.87
2019-03-27T12:19:38.041Z,4.33
2019-03-27T12:22:06.611Z,4.22
2019-03-27T12:24:34.883Z,4.83
2019-03-27T12:27:03.269Z,4.58
2019-03-27T12:29:31.594Z,5.25
2019-03-27T12:31:59.938Z,5.67
2019-03-27T12:34:29.995Z,5.83
2019-03-27T12:39:26.226Z,5.78
2019-03-27T12:41:54.993Z,5.58
2019-03-27T12:44:23.426Z,5.28
2019-03-27T12:46:52.151Z,5.80
2019-03-27T12:49:22.249Z,5.53
2019-03-27T12:54:18.248Z,5.35
2019-03-27T12:56:46.516Z,6.03
2019-03-27T12:59:14.927Z,5.37
2019-03-27T13:01:43.219Z,5.92
2019-03-27T13:04:11.507Z,5.28
2019-03-27T13:06:39.901Z,6.45
2019-03-27T13:09:08.322Z,5.50
2019-03-27T13:11:36.990Z,5.33
2019-03-27T13:14:05.409Z,5.33
2019-03-27T13:16:33.872Z,6.08
2019-03-27T13:19:02.630Z,5.40
2019-03-27T13:21:31.145Z,5.67
2019-03-27T13:23:59.461Z,5.92
2019-03-27T13:26:27.798Z,6.55
2019-03-27T13:28:56.109Z,5.87
2019-03-27T13:31:24.414Z,6.87
2019-03-27T13:33:52.758Z,6.47
2019-03-27T13:36:21.100Z,7.12
2019-03-27T13:38:49.395Z,7.92
2019-03-27T13:41:17.700Z,7.55
2019-03-27T13:43:45.973Z,7.35
2019-03-27T13:46:14.289Z,8.33
2019-03-27T13:48:42.654Z,7.92
2019-03-27T13:51:11.021Z,6.85
2019-03-27T13:53:39.387Z,7.62
2019-03-27T13:56:08.067Z,8.00
2019-03-27T13:58:36.536Z,6.60
2019-03-27T14:01:04.939Z,6.47
2019-03-27T14:03:33.494Z,5.58
2019-03-27T14:06:01.835Z,5.62
2019-03-27T14:08:30.499Z,6.03
2019-03-27T14:10:59.113Z,5.55
2019-03-27T14:13:27.529Z,6.28
2019-03-27T14:15:56.352Z,5.35
2019-03-27T14:18:24.802Z,5.42
2019-03-27T14:20:53.245Z,5.70
2019-03-27T14:23:21.579Z,4.85
2019-03-27T14:25:49.975Z,5.17
2019-03-27T14:28:18.576Z,5.25
2019-03-27T14:30:49.757Z,4.95
2019-03-27T14:33:18.378Z,4.17
2019-03-27T14:35:46.829Z,5.15
2019-03-27T14:38:15.203Z,5.15
2019-03-27T14:40:43.544Z,4.62
2019-03-27T14:43:11.941Z,4.12
2019-03-27T14:45:40.390Z,4.80
2019-03-27T14:48:09.044Z,4.12
2019-03-27T14:50:37.347Z,3.92
2019-03-27T14:53:06.862Z,3.42
2019-03-27T14:55:35.126Z,3.37
2019-03-27T14:58:03.511Z,3.35
2019-03-27T15:00:31.852Z,3.85
2019-03-27T15:03:00.221Z,3.58
2019-03-27T15:05:28.998Z,3.80
2019-03-27T15:07:57.358Z,3.30
2019-03-27T15:10:25.853Z,3.70
2019-03-27T15:12:54.502Z,2.80
2019-03-27T15:15:23.280Z,3.90
2019-03-27T15:17:51.930Z,3.83
2019-03-27T15:20:20.629Z,3.08
2019-03-27T15:22:49.009Z,3.40
2019-03-27T15:25:17.363Z,4.00
2019-03-27T15:27:45.738Z,3.83
2019-03-27T15:30:14.135Z,3.37
2019-03-27T15:32:42.687Z,3.42
2019-03-27T15:35:11.385Z,3.08
2019-03-27T15:37:40.906Z,3.00
2019-03-27T15:40:09.197Z,3.35
2019-03-27T15:42:38.571Z,3.40
2019-03-27T15:45:07.429Z,3.25
2019-03-27T15:47:36.740Z,3.17
2019-03-27T15:50:07.977Z,3.70
2019-03-27T15:52:37.188Z,4.03
2019-03-27T15:55:06.880Z,3.12
2019-03-27T15:57:35.472Z,2.98
2019-03-27T16:00:05.090Z,3.77
2019-03-27T16:02:33.471Z,3.35
2019-03-27T16:05:01.833Z,4.40
2019-03-27T16:07:31.482Z,3.67
2019-03-27T16:10:00.443Z,3.65
2019-03-27T16:12:29.533Z,3.80
2019-03-27T16:14:57.882Z,12.37
2019-03-27T16:17:26.471Z,20.40
2019-03-27T16:19:54.796Z,96.30
2019-03-27T16:22:23.328Z,70.00
2019-03-27T16:24:51.718Z,31.52
2019-03-27T16:27:20.115Z,6.00
2019-03-27T16:29:48.688Z,4.47
2019-03-27T16:32:17.176Z,4.90
2019-03-27T16:34:45.593Z,4.37
2019-03-27T16:37:14.009Z,3.95
2019-03-27T16:39:42.379Z,4.85
2019-03-27T16:42:10.697Z,3.85
2019-03-27T16:44:38.983Z,5.37
2019-03-27T16:47:07.262Z,4.42
2019-03-27T16:49:35.834Z,5.30
2019-03-27T16:52:04.128Z,4.55
2019-03-27T16:54:32.461Z,5.17
2019-03-27T16:57:01.782Z,5.25
2019-03-27T16:59:30.266Z,4.97
2019-03-27T17:01:58.741Z,5.25
2019-03-27T17:04:27.063Z,4.87
2019-03-27T17:06:55.434Z,5.00
2019-03-27T17:09:24.097Z,5.30
2019-03-27T17:11:52.529Z,5.70
2019-03-27T17:14:20.977Z,5.85
2019-03-27T17:16:49.318Z,6.15
2019-03-27T17:19:17.696Z,7.22
2019-03-27T17:21:45.975Z,8.25
2019-03-27T17:24:14.370Z,8.25
2019-03-27T17:26:42.771Z,9.35
2019-03-27T17:29:11.051Z,15.30
2019-03-27T17:31:39.434Z,16.27
2019-03-27T17:34:07.884Z,12.90
2019-03-27T17:36:36.176Z,11.28
2019-03-27T17:39:08.832Z,12.93
2019-03-27T17:41:37.667Z,15.23
2019-03-27T17:44:06.120Z,14.85
2019-03-27T17:46:34.614Z,11.65
2019-03-27T17:49:03.097Z,12.13
2019-03-27T17:51:31.385Z,12.23
2019-03-27T17:53:59.745Z,12.37
2019-03-27T17:56:28.238Z,14.78
2019-03-27T17:58:57.473Z,11.15
2019-03-27T18:01:25.854Z,11.33
2019-03-27T18:03:54.233Z,9.08
2019-03-27T18:06:22.650Z,7.55
2019-03-27T18:08:51.055Z,7.90
2019-03-27T18:11:19.572Z,8.13
2019-03-27T18:13:47.908Z,7.80
2019-03-27T18:16:17.305Z,8.58
2019-03-27T18:18:45.885Z,10.65
2019-03-27T18:21:14.232Z,11.80
2019-03-27T18:23:46.427Z,13.60
2019-03-27T18:26:12.781Z,14.68
2019-03-27T18:28:41.159Z,16.45
2019-03-27T18:31:09.475Z,16.32
2019-03-27T18:33:39.055Z,16.82
2019-03-27T18:36:09.364Z,16.90
2019-03-27T18:38:37.927Z,18.12
2019-03-27T18:41:06.371Z,23.98
2019-03-27T18:43:34.891Z,24.15
2019-03-27T18:46:03.216Z,22.80
2019-03-27T18:48:31.561Z,21.87
2019-03-27T18:51:00.026Z,26.37
2019-03-27T18:53:28.682Z,22.00
2019-03-27T18:55:57.065Z,20.50
2019-03-27T18:58:25.760Z,18.23
2019-03-27T19:00:55.037Z,18.85
2019-03-27T19:03:23.398Z,16.93
2019-03-27T19:05:51.875Z,16.17
2019-03-27T19:08:20.339Z,16.77
2019-03-27T19:10:48.692Z,16.52
2019-03-27T19:13:17.121Z,18.15
2019-03-27T19:16:08.996Z,18.27
2019-03-27T19:19:05.028Z,18.60
2019-03-27T19:21:33.883Z,17.32
2019-03-27T19:24:13.307Z,14.80
2019-03-27T19:26:32.663Z,15.95
2019-03-27T19:29:00.995Z,15.40
2019-03-27T19:31:29.262Z,15.35
2019-03-27T19:33:57.625Z,14.28
2019-03-27T19:36:26.035Z,18.67
2019-03-27T19:38:54.459Z,16.10
2019-03-27T19:41:24.668Z,14.43
2019-03-27T19:43:53.714Z,13.53
2019-03-27T19:46:22.084Z,14.35
2019-03-27T19:48:50.990Z,13.68
2019-03-27T19:51:21.817Z,14.90
2019-03-27T19:53:53.403Z,15.95
2019-03-27T19:56:25.326Z,15.15
2019-03-27T19:58:54.044Z,14.63
2019-03-27T20:01:23.345Z,16.25
2019-03-27T20:03:51.708Z,12.43
2019-03-27T20:06:20.058Z,12.43
2019-03-27T20:08:48.328Z,13.15
2019-03-27T20:11:20.917Z,13.58
2019-03-27T20:13:49.217Z,12.40
2019-03-27T20:16:17.825Z,13.43
2019-03-27T20:18:49.034Z,13.68
2019-03-27T20:21:17.323Z,14.38
2019-03-27T20:23:49.068Z,14.20
2019-03-27T20:26:17.352Z,15.80
2019-03-27T20:29:11.100Z,13.78
2019-03-27T20:31:39.470Z,15.18
2019-03-27T20:34:07.773Z,15.32
2019-03-27T20:36:39.016Z,14.70
2019-03-27T20:39:08.368Z,16.32
2019-03-27T20:41:36.653Z,16.70
2019-03-27T20:44:04.980Z,17.30
2019-03-27T20:46:33.420Z,18.35
2019-03-27T20:49:09.170Z,18.57
2019-03-27T20:51:38.351Z,18.82
2019-03-27T20:54:07.049Z,17.07
2019-03-27T20:56:36.425Z,18.07
2019-03-27T20:59:04.826Z,18.23
2019-03-27T21:01:36.050Z,17.60
2019-03-27T21:04:16.292Z,17.62
2019-03-27T21:06:44.592Z,20.05
2019-03-27T21:09:14.447Z,19.20
2019-03-27T21:11:43.122Z,20.90
2019-03-27T21:14:11.522Z,21.33
2019-03-27T21:16:39.869Z,20.27
2019-03-27T21:19:08.361Z,21.02
2019-03-27T21:21:36.709Z,19.67
2019-03-27T21:24:05.039Z,20.05
2019-03-27T21:26:33.453Z,18.62
2019-03-27T21:29:01.737Z,19.15
2019-03-27T21:31:30.183Z,20.37
2019-03-27T21:33:59.132Z,19.87
2019-03-27T21:36:27.579Z,18.63
2019-03-27T21:38:55.970Z,19.98
2019-03-27T21:41:24.290Z,18.42
2019-03-27T21:43:53.509Z,18.95
2019-03-27T21:46:21.838Z,19.35
2019-03-27T21:48:50.223Z,18.35
2019-03-27T21:51:18.640Z,17.35
2019-03-27T21:53:50.962Z,18.17
2019-03-27T21:56:19.080Z,18.37
2019-03-27T21:58:47.540Z,18.67
2019-03-27T22:01:17.176Z,18.67
2019-03-27T22:03:46.319Z,17.98
2019-03-27T22:06:14.591Z,18.07
2019-03-27T22:08:43.081Z,19.15
2019-03-27T22:11:13.313Z,19.48
2019-03-27T22:13:41.747Z,20.85
2019-03-27T22:16:10.157Z,19.92
2019-03-27T22:18:38.471Z,20.72
2019-03-27T22:21:06.893Z,20.30
2019-03-27T22:23:35.244Z,20.85
2019-03-27T22:26:03.689Z,19.85
2019-03-27T22:28:32.063Z,23.07
2019-03-27T22:31:00.511Z,71.40
2019-03-27T22:33:29.185Z,35.63
2019-03-27T22:35:57.737Z,27.45
2019-03-27T22:38:26.162Z,27.85
2019-03-27T22:40:54.797Z,31.27
2019-03-27T22:43:23.248Z,30.82
2019-03-27T22:45:51.622Z,32.70
2019-03-27T22:48:20.071Z,31.75
2019-03-27T22:50:48.733Z,31.57
2019-03-27T22:53:17.169Z,32.50
2019-03-27T22:55:50.118Z,32.80
2019-03-27T22:58:15.617Z,33.42
2019-03-27T23:00:45.770Z,33.15
2019-03-27T23:03:18.434Z,30.50
2019-03-27T23:05:45.381Z,32.90
2019-03-27T23:08:13.871Z,32.13
2019-03-27T23:10:42.452Z,32.33
2019-03-27T23:13:10.895Z,33.53
2019-03-27T23:15:39.354Z,32.42
2019-03-27T23:18:07.774Z,32.53
2019-03-27T23:20:36.165Z,31.05
2019-03-27T23:23:04.675Z,32.28
2019-03-27T23:25:32.960Z,31.50
2019-03-27T23:28:01.264Z,30.15
2019-03-27T23:30:29.553Z,27.35
2019-03-27T23:32:57.871Z,27.73
2019-03-27T23:35:26.185Z,27.45
2019-03-27T23:37:54.662Z,28.45
2019-03-27T23:40:23.147Z,27.27
2019-03-27T23:42:51.423Z,27.60
2019-03-27T23:45:20.133Z,28.40
2019-03-27T23:47:48.893Z,27.95
2019-03-27T23:50:17.449Z,27.45
2019-03-27T23:52:45.831Z,26.87
2019-03-27T23:55:16.914Z,27.95
2019-03-27T23:57:45.196Z,26.50
